Time;durP1;ratioP1;P1;durP2;ratioP2;P2;SDS_P1;SDS_P2;PMS_P1;PMS_P2;Temp;Humidity;BMP_temperature;BMP_pressure;BME280_temperature;BME280_humidity;BME280_pressure;Samples;Min_cycle;Max_cycle;Signal;HPM_P1;HPM_P2
2024/04/23 00:02:01;;;;;;;5.73;4.83;;;5.00;99.90;;;;;;6526944;22;20226;-68
2024/04/23 00:04:29;;;;;;;5.93;4.37;;;4.90;99.90;;;;;;6525008;21;20504;-68
2024/04/23 00:06:55;;;;;;;5.83;4.00;;;4.80;99.90;;;;;;6526778;22;20272;-68
2024/04/23 00:09:27;;;;;;;5.03;4.53;;;4.80;99.90;;;;;;6526227;22;20465;-67
2024/04/23 00:11:53;;;;;;;6.37;4.13;;;4.70;99.90;;;;;;6526455;22;20843;-69
2024/04/23 00:14:22;;;;;;;5.57;4.30;;;4.70;99.90;;;;;;6525200;21;20801;-69
2024/04/23 00:16:56;;;;;;;5.70;4.00;;;4.60;99.90;;;;;;6526214;22;20456;-68
2024/04/23 00:19:25;;;;;;;11.40;4.47;;;4.70;99.90;;;;;;6526264;22;20503;-69
2024/04/23 00:21:51;;;;;;;6.50;4.53;;;4.60;99.90;;;;;;6526215;22;20460;-68
2024/04/23 00:24:19;;;;;;;8.10;4.00;;;4.60;99.90;;;;;;6524879;21;20501;-67
2024/04/23 00:26:53;;;;;;;7.20;5.00;;;4.60;99.90;;;;;;6526332;22;20221;-68
2024/04/23 00:29:22;;;;;;;6.93;4.77;;;4.60;99.90;;;;;;6525912;22;20884;-68
2024/04/23 00:31:51;;;;;;;7.43;4.07;;;4.60;99.90;;;;;;6526534;22;20495;-68
2024/04/23 00:34:21;;;;;;;7.10;5.13;;;4.50;99.90;;;;;;6524885;21;20577;-67
2024/04/23 00:36:53;;;;;;;15.33;7.97;;;4.50;99.90;;;;;;6526011;22;20487;-67
2024/04/23 00:39:22;;;;;;;10.10;5.80;;;4.40;99.90;;;;;;6526032;22;20564;-67
2024/04/23 00:41:48;;;;;;;7.27;4.70;;;4.40;99.90;;;;;;6526364;22;20806;-68
2024/04/23 00:44:19;;;;;;;7.70;5.70;;;4.40;99.90;;;;;;6526437;21;20461;-68
2024/04/23 00:46:47;;;;;;;7.93;5.03;;;4.30;99.90;;;;;;6526315;22;20456;-67
2024/04/23 00:49:17;;;;;;;8.47;5.00;;;4.30;99.90;;;;;;6526292;22;20464;-67
2024/04/23 00:51:47;;;;;;;7.00;4.80;;;4.30;99.90;;;;;;6526510;22;20460;-67
2024/04/23 00:54:17;;;;;;;7.23;4.13;;;4.30;99.90;;;;;;6525845;21;21029;-67
2024/04/23 00:56:43;;;;;;;8.90;4.60;;;4.20;99.90;;;;;;6526200;22;20468;-67
2024/04/23 00:59:15;;;;;;;7.53;5.33;;;4.20;99.90;;;;;;6525901;22;20508;-67
2024/04/23 01:01:44;;;;;;;8.83;4.47;;;4.30;99.90;;;;;;6526233;22;20456;-67
2024/04/23 01:04:12;;;;;;;6.60;5.20;;;4.20;99.90;;;;;;6525365;21;20461;-68
2024/04/23 01:06:38;;;;;;;8.57;4.67;;;4.20;99.90;;;;;;6524810;22;20525;-67
2024/04/23 01:09:07;;;;;;;8.07;5.30;;;4.20;99.90;;;;;;6526226;22;20769;-67
2024/04/23 01:11:34;;;;;;;7.67;4.73;;;4.20;99.90;;;;;;6526100;22;20452;-69
2024/04/23 01:14:03;;;;;;;6.60;4.07;;;4.10;99.90;;;;;;6526023;21;20464;-67
2024/04/23 01:16:34;;;;;;;7.80;4.67;;;4.00;99.90;;;;;;6525146;22;20452;-67
2024/04/23 01:19:07;;;;;;;6.73;4.23;;;4.10;99.90;;;;;;6525751;22;20456;-67
2024/04/23 01:21:41;;;;;;;10.10;4.23;;;4.10;99.90;;;;;;6526716;22;20513;-67
2024/04/23 01:24:16;;;;;;;5.40;3.47;;;4.00;99.90;;;;;;6525708;21;20476;-67
2024/04/23 01:26:46;;;;;;;5.97;4.00;;;4.00;99.90;;;;;;6526995;22;20561;-67
2024/04/23 01:29:15;;;;;;;7.50;5.47;;;4.00;99.90;;;;;;6526257;22;20500;-67
2024/04/23 01:31:42;;;;;;;7.20;4.80;;;4.00;99.90;;;;;;6526772;22;20499;-68
2024/04/23 01:34:10;;;;;;;5.57;3.53;;;4.00;99.90;;;;;;6525662;21;20464;-68
2024/04/23 01:36:36;;;;;;;5.97;4.00;;;4.00;99.90;;;;;;6524664;22;20456;-67
2024/04/23 01:39:05;;;;;;;7.63;4.20;;;3.90;99.90;;;;;;6525718;22;20764;-68
2024/04/23 01:41:31;;;;;;;8.60;4.33;;;3.90;99.90;;;;;;6525967;22;20344;-68
2024/04/23 01:44:03;;;;;;;4.90;3.20;;;3.90;99.90;;;;;;6525234;21;20778;-68
2024/04/23 01:46:29;;;;;;;8.37;4.30;;;3.90;99.90;;;;;;6525341;22;20456;-68
2024/04/23 01:48:57;;;;;;;5.63;3.77;;;3.80;99.90;;;;;;6525720;22;20802;-68
2024/04/23 01:51:24;;;;;;;5.83;3.87;;;3.80;99.90;;;;;;6525641;22;20505;-68
2024/04/23 01:53:52;;;;;;;6.93;4.50;;;3.80;99.90;;;;;;6524746;21;20528;-68
2024/04/23 01:56:18;;;;;;;6.90;4.10;;;3.80;99.90;;;;;;6524775;22;20994;-68
2024/04/23 01:58:47;;;;;;;6.10;4.30;;;3.70;99.90;;;;;;6524468;22;20452;-68
2024/04/23 02:01:17;;;;;;;6.30;3.93;;;3.70;99.90;;;;;;6525681;22;20505;-68
2024/04/23 02:03:47;;;;;;;8.13;5.10;;;3.60;99.90;;;;;;6525260;21;20561;-68
2024/04/23 02:06:14;;;;;;;5.27;3.50;;;3.60;99.90;;;;;;6524779;22;20448;-68
2024/04/23 02:08:43;;;;;;;6.50;3.83;;;3.60;99.90;;;;;;6525016;22;20961;-67
2024/04/23 02:11:09;;;;;;;7.37;4.57;;;3.60;99.90;;;;;;6525550;22;20808;-67
2024/04/23 02:13:37;;;;;;;7.17;5.00;;;3.60;99.90;;;;;;6525129;21;20453;-67
2024/04/23 02:16:03;;;;;;;3.90;3.33;;;3.60;99.90;;;;;;6524693;22;20856;-67
2024/04/23 02:18:35;;;;;;;6.30;3.87;;;3.60;99.90;;;;;;6527416;22;20452;-68
2024/04/23 02:21:00;;;;;;;4.73;3.67;;;3.50;99.90;;;;;;6527131;22;20501;-68
2024/04/23 02:23:29;;;;;;;6.80;4.37;;;3.50;99.90;;;;;;6527460;21;20440;-67
2024/04/23 02:25:55;;;;;;;4.50;3.67;;;3.60;99.90;;;;;;6526553;22;20256;-67
2024/04/23 02:28:23;;;;;;;7.27;3.87;;;3.60;99.90;;;;;;6527019;22;20766;-67
2024/04/23 02:30:49;;;;;;;5.53;4.27;;;3.50;99.90;;;;;;6527731;22;20222;-67
2024/04/23 02:33:17;;;;;;;6.83;4.37;;;3.50;99.90;;;;;;6527371;22;20508;-67
2024/04/23 02:35:46;;;;;;;4.67;4.13;;;3.40;99.90;;;;;;6526736;22;20492;-67
2024/04/23 02:38:14;;;;;;;7.73;4.73;;;3.50;99.90;;;;;;6527349;22;20563;-67
2024/04/23 02:40:40;;;;;;;7.87;4.07;;;3.30;99.90;;;;;;6527388;22;20753;-67
2024/04/23 02:43:09;;;;;;;5.20;4.10;;;3.30;99.90;;;;;;6527376;22;20452;-68
2024/04/23 02:45:35;;;;;;;4.90;4.40;;;3.30;99.90;;;;;;6526326;21;20233;-67
2024/04/23 02:48:03;;;;;;;6.20;3.83;;;3.30;99.90;;;;;;6526725;22;20476;-68
2024/04/23 02:50:29;;;;;;;11.20;4.70;;;3.30;99.90;;;;;;6527272;22;20256;-67
2024/04/23 02:53:00;;;;;;;5.37;4.07;;;3.20;99.90;;;;;;6527297;22;20770;-68
2024/04/23 02:55:26;;;;;;;8.07;4.77;;;3.20;99.90;;;;;;6525710;21;20460;-68
2024/04/23 02:57:54;;;;;;;5.43;3.70;;;3.20;99.90;;;;;;6527045;22;20510;-68
2024/04/23 03:00:20;;;;;;;5.50;4.70;;;3.20;99.90;;;;;;6526959;22;20218;-67
2024/04/23 03:02:49;;;;;;;6.97;5.17;;;3.20;99.90;;;;;;6527033;22;20500;-67
2024/04/23 03:05:15;;;;;;;10.23;5.13;;;3.20;99.90;;;;;;6525962;21;20245;-67
2024/04/23 03:07:43;;;;;;;5.73;5.13;;;3.20;99.90;;;;;;6527077;22;20504;-68
2024/04/23 03:10:12;;;;;;;7.03;4.90;;;3.10;99.90;;;;;;6527051;22;20510;-68
2024/04/23 03:12:40;;;;;;;8.60;6.03;;;3.10;99.90;;;;;;6527081;22;20504;-67
2024/04/23 03:15:06;;;;;;;10.50;6.83;;;3.10;99.90;;;;;;6525520;21;20472;-67
2024/04/23 03:17:35;;;;;;;16.43;6.80;;;3.10;99.90;;;;;;6526887;22;20440;-68
2024/04/23 03:20:01;;;;;;;10.57;6.23;;;3.10;99.90;;;;;;6526700;22;20836;-68
2024/04/23 03:22:29;;;;;;;7.77;5.90;;;3.10;99.90;;;;;;6527959;22;20457;-68
2024/04/23 03:24:55;;;;;;;8.07;5.20;;;3.00;99.90;;;;;;6526075;21;20264;-69
2024/04/23 03:27:26;;;;;;;8.47;5.10;;;3.00;99.90;;;;;;6526238;22;20460;-68
2024/04/23 03:29:52;;;;;;;7.03;4.90;;;3.00;99.90;;;;;;6526796;22;20468;-67
2024/04/23 03:32:21;;;;;;;4.40;3.80;;;3.00;99.90;;;;;;6526860;22;20982;-67
2024/04/23 03:34:46;;;;;;;6.00;3.67;;;2.90;99.90;;;;;;6525680;21;20523;-68
2024/04/23 03:37:15;;;;;;;5.10;3.73;;;2.80;99.90;;;;;;6526946;22;20497;-69
2024/04/23 03:39:43;;;;;;;8.13;4.63;;;2.80;99.90;;;;;;6527317;22;20280;-68
2024/04/23 03:42:12;;;;;;;5.37;4.17;;;2.70;99.90;;;;;;6527028;22;20521;-68
2024/04/23 03:44:43;;;;;;;4.20;3.40;;;2.70;99.90;;;;;;6525676;21;20472;-67
2024/04/23 03:47:09;;;;;;;5.30;3.53;;;2.60;99.90;;;;;;6526237;22;20969;-67
2024/04/23 03:49:38;;;;;;;7.10;4.00;;;2.60;99.90;;;;;;6526550;22;20556;-68
2024/04/23 03:52:07;;;;;;;6.83;4.40;;;2.60;99.90;;;;;;6526567;22;20464;-67
2024/04/23 03:54:35;;;;;;;9.47;4.10;;;2.60;99.90;;;;;;6525273;21;20472;-67
2024/04/23 03:57:01;;;;;;;3.80;2.67;;;2.60;99.90;;;;;;6527033;22;20938;-68
2024/04/23 03:59:30;;;;;;;14.63;3.97;;;2.50;99.90;;;;;;6526118;22;20512;-68
2024/04/23 04:07:26;;;;;;;6.93;3.70;;;2.50;99.90;;;;;;6530372;21;20497;-67
2024/04/23 04:09:54;;;;;;;4.10;3.00;;;2.50;99.90;;;;;;6526566;22;20801;-68
2024/04/23 04:12:23;;;;;;;4.90;3.20;;;2.50;99.90;;;;;;6526680;22;20509;-68
2024/04/23 04:14:54;;;;;;;4.57;2.90;;;2.40;99.90;;;;;;6525063;21;20468;-68
2024/04/23 04:17:22;;;;;;;7.43;4.23;;;2.50;99.90;;;;;;6526407;22;20505;-68
2024/04/23 04:19:51;;;;;;;6.30;4.53;;;2.40;99.90;;;;;;6526316;22;20449;-67
2024/04/23 04:22:18;;;;;;;6.10;2.70;;;2.40;99.90;;;;;;6526049;22;20468;-68
2024/04/23 04:24:47;;;;;;;6.40;3.60;;;2.40;99.90;;;;;;6525176;21;21069;-68
2024/04/23 04:27:13;;;;;;;4.90;3.23;;;2.40;99.90;;;;;;6526279;22;20930;-68
2024/04/23 04:29:41;;;;;;;7.33;5.37;;;2.30;99.90;;;;;;6525930;22;20523;-68
2024/04/23 04:32:08;;;;;;;7.90;4.00;;;2.30;99.90;;;;;;6526033;22;20460;-68
2024/04/23 04:34:39;;;;;;;6.60;3.90;;;2.30;99.90;;;;;;6524887;21;20516;-68
2024/04/23 04:37:08;;;;;;;3.07;2.33;;;2.30;99.90;;;;;;6526584;22;20499;-67
2024/04/23 04:39:39;;;;;;;4.80;3.40;;;2.30;99.90;;;;;;6525461;22;20504;-68
2024/04/23 04:42:05;;;;;;;5.90;3.83;;;2.30;99.90;;;;;;6526128;22;20512;-68
2024/04/23 04:44:35;;;;;;;5.97;2.97;;;2.40;99.90;;;;;;6524974;21;20476;-67
2024/04/23 04:47:01;;;;;;;5.67;3.33;;;2.40;99.90;;;;;;6525973;22;20468;-66
2024/04/23 04:49:30;;;;;;;7.03;3.70;;;2.50;99.90;;;;;;6525970;22;20950;-68
2024/04/23 04:51:58;;;;;;;5.17;3.13;;;2.50;99.90;;;;;;6526157;22;20440;-68
2024/04/23 04:54:27;;;;;;;4.43;3.47;;;2.50;99.90;;;;;;6524637;21;20468;-69
2024/04/23 04:56:53;;;;;;;5.73;3.60;;;2.50;99.90;;;;;;6526291;22;20495;-67
2024/04/23 04:59:21;;;;;;;8.17;3.43;;;2.60;99.90;;;;;;6525764;22;20946;-67
2024/04/23 05:01:47;;;;;;;6.93;4.00;;;2.60;99.90;;;;;;6525555;22;20229;-68
2024/04/23 05:04:15;;;;;;;7.00;4.27;;;2.60;99.90;;;;;;6526222;21;21032;-67
2024/04/23 05:06:41;;;;;;;5.57;3.60;;;2.60;99.90;;;;;;6525187;22;20779;-67
2024/04/23 05:09:13;;;;;;;4.73;3.13;;;2.60;99.90;;;;;;6526371;22;20502;-68
2024/04/23 05:11:39;;;;;;;7.67;3.80;;;2.60;99.90;;;;;;6525949;22;20850;-68
2024/04/23 05:14:08;;;;;;;4.60;3.87;;;2.70;99.90;;;;;;6525252;21;20468;-68
2024/04/23 05:16:34;;;;;;;5.50;3.60;;;2.80;99.90;;;;;;6524966;22;20460;-68
2024/04/23 05:19:04;;;;;;;6.50;3.53;;;2.80;99.90;;;;;;6526019;22;20472;-68
2024/04/23 05:21:30;;;;;;;4.27;3.50;;;2.90;99.90;;;;;;6526037;22;20460;-68
2024/04/23 05:23:59;;;;;;;5.53;4.07;;;2.90;99.90;;;;;;6525940;21;20468;-68
2024/04/23 05:26:27;;;;;;;4.17;3.63;;;3.00;99.90;;;;;;6524829;22;20500;-67
2024/04/23 05:28:57;;;;;;;12.40;4.67;;;3.10;99.90;;;;;;6525424;22;20588;-68
2024/04/23 05:34:10;;;;;;;6.67;4.10;;;3.40;99.90;;;;;;6528355;21;20505;-69
2024/04/23 05:36:39;;;;;;;6.03;4.00;;;3.50;99.90;;;;;;6524099;22;20961;-69
2024/04/23 05:39:05;;;;;;;5.73;4.13;;;3.60;99.90;;;;;;6525947;22;20517;-68
2024/04/23 05:41:36;;;;;;;6.30;4.73;;;3.70;99.90;;;;;;6526195;22;20452;-69
2024/04/23 05:44:04;;;;;;;6.00;4.27;;;3.80;99.90;;;;;;6526624;21;20468;-69
2024/04/23 05:46:33;;;;;;;6.40;4.13;;;3.90;99.90;;;;;;6525235;22;20495;-69
2024/04/23 05:49:39;;;;;;;9.73;5.10;;;4.00;99.90;;;;;;6526032;22;20444;-69
2024/04/23 05:52:45;;;;;;;8.30;4.87;;;4.10;99.90;;;;;;6527430;22;20452;-69
2024/04/23 05:55:37;;;;;;;6.30;4.00;;;4.30;99.90;;;;;;6526632;21;20500;-69
2024/04/23 05:58:05;;;;;;;5.33;4.83;;;4.40;99.90;;;;;;6527932;22;20576;-68
2024/04/23 06:00:34;;;;;;;6.53;5.77;;;4.40;99.90;;;;;;6527324;22;20770;-69
2024/04/23 06:03:01;;;;;;;5.40;4.60;;;4.50;99.90;;;;;;6527856;22;20457;-68
2024/04/23 06:05:29;;;;;;;12.43;6.53;;;4.40;99.90;;;;;;6526441;21;20472;-70
2024/04/23 06:07:59;;;;;;;11.33;6.37;;;4.40;99.90;;;;;;6527048;22;20460;-69
2024/04/23 06:10:25;;;;;;;7.97;5.90;;;4.40;99.90;;;;;;6527499;22;20476;-68
2024/04/23 06:12:54;;;;;;;7.37;4.80;;;4.40;99.90;;;;;;6527747;22;20799;-69
2024/04/23 06:15:22;;;;;;;9.87;6.10;;;4.40;99.90;;;;;;6525421;21;20468;-69
2024/04/23 06:17:51;;;;;;;10.63;5.70;;;4.50;99.90;;;;;;6523916;22;20549;-68
2024/04/23 06:20:17;;;;;;;8.53;5.67;;;4.50;99.90;;;;;;6527302;22;20496;-69
2024/04/23 06:22:48;;;;;;;6.87;5.70;;;4.60;99.90;;;;;;6527225;22;20961;-69
2024/04/23 06:25:14;;;;;;;10.47;5.10;;;4.60;99.90;;;;;;6526021;21;20905;-69
2024/04/23 06:27:43;;;;;;;16.90;5.90;;;4.70;99.90;;;;;;6526580;22;20824;-68
2024/04/23 06:30:11;;;;;;;7.83;5.27;;;4.90;99.90;;;;;;6526867;22;20454;-69
2024/04/23 06:32:42;;;;;;;9.97;5.33;;;5.00;99.90;;;;;;6527276;22;20839;-68
2024/04/23 06:35:11;;;;;;;9.67;4.93;;;5.00;99.90;;;;;;6525785;21;20464;-68
2024/04/23 06:37:40;;;;;;;6.73;4.17;;;5.10;99.90;;;;;;6527488;22;20459;-68
2024/04/23 06:40:08;;;;;;;11.53;5.07;;;5.10;99.90;;;;;;6527366;22;20452;-70
2024/04/23 06:42:37;;;;;;;8.43;4.93;;;5.20;99.90;;;;;;6528061;22;20459;-69
2024/04/23 06:45:06;;;;;;;7.17;3.80;;;5.20;99.90;;;;;;6526279;21;20981;-69
2024/04/23 06:47:36;;;;;;;9.63;4.97;;;5.30;99.90;;;;;;6528970;22;20476;-69
2024/04/23 06:50:07;;;;;;;7.30;4.10;;;5.30;99.90;;;;;;6527157;22;20501;-69
2024/04/23 06:52:36;;;;;;;6.27;4.57;;;5.40;99.90;;;;;;6527454;22;20464;-68
2024/04/23 06:55:02;;;;;;;5.53;3.80;;;5.60;99.90;;;;;;6526165;21;20485;-68
2024/04/23 06:57:30;;;;;;;6.50;3.50;;;5.60;99.90;;;;;;6527092;22;21004;-69
2024/04/23 06:59:56;;;;;;;5.73;3.43;;;5.70;99.90;;;;;;6527006;22;20452;-69
2024/04/23 07:02:25;;;;;;;6.60;4.23;;;5.90;99.90;;;;;;6526799;22;20469;-69
2024/04/23 07:04:54;;;;;;;9.03;3.37;;;6.00;99.90;;;;;;6525942;21;20505;-69
2024/04/23 07:07:22;;;;;;;5.93;3.70;;;6.20;99.90;;;;;;6526791;22;20601;-68
2024/04/23 07:09:51;;;;;;;5.00;3.80;;;6.30;99.90;;;;;;6527350;22;20572;-69
2024/04/23 07:12:17;;;;;;;6.30;3.63;;;6.30;99.90;;;;;;6526646;22;20456;-69
2024/04/23 07:14:46;;;;;;;7.70;4.03;;;6.30;99.90;;;;;;6525686;21;20513;-68
2024/04/23 07:17:11;;;;;;;6.50;4.60;;;6.30;99.90;;;;;;6526851;22;20285;-68
2024/04/23 07:19:40;;;;;;;8.13;3.77;;;6.40;99.90;;;;;;6526861;22;20588;-69
2024/04/23 07:22:06;;;;;;;4.57;3.40;;;6.30;99.90;;;;;;6526877;22;20453;-68
2024/04/23 07:24:37;;;;;;;12.70;4.53;;;6.40;99.90;;;;;;6525652;21;21022;-69
2024/04/23 07:27:04;;;;;;;5.87;3.50;;;6.40;99.90;;;;;;6526676;22;20505;-69
2024/04/23 07:29:32;;;;;;;5.27;3.20;;;6.40;99.90;;;;;;6526736;22;20531;-69
2024/04/23 07:31:58;;;;;;;4.07;2.97;;;6.40;99.90;;;;;;6526404;22;20769;-69
2024/04/23 07:34:27;;;;;;;6.93;3.07;;;6.30;99.90;;;;;;6525487;21;20473;-69
2024/04/23 07:36:53;;;;;;;7.00;3.63;;;6.30;99.90;;;;;;6526853;22;20452;-69
2024/04/23 07:39:22;;;;;;;11.27;3.50;;;6.30;99.90;;;;;;6526886;22;20452;-69
2024/04/23 07:41:50;;;;;;;11.53;3.30;;;6.30;99.90;;;;;;6526456;22;20985;-69
2024/04/23 07:44:19;;;;;;;4.67;3.40;;;6.40;99.90;;;;;;6526053;21;20468;-69
2024/04/23 07:46:45;;;;;;;5.73;3.53;;;6.50;99.90;;;;;;6526359;22;20822;-69
2024/04/23 07:49:14;;;;;;;6.10;3.80;;;6.70;99.90;;;;;;6527110;22;20468;-69
2024/04/23 07:51:40;;;;;;;6.67;3.70;;;6.80;99.90;;;;;;6526660;22;20588;-69
2024/04/23 07:54:12;;;;;;;7.17;3.80;;;7.60;99.90;;;;;;6526426;21;20469;-67
2024/04/23 07:56:38;;;;;;;7.03;3.10;;;9.20;99.90;;;;;;6525459;22;20544;-69
2024/04/23 07:59:09;;;;;;;4.63;2.77;;;10.90;99.90;;;;;;6526152;22;20453;-69
2024/04/23 08:01:35;;;;;;;3.10;2.50;;;12.70;99.90;;;;;;6526389;22;20528;-69
2024/04/23 08:04:05;;;;;;;4.03;2.50;;;14.50;89.80;;;;;;6525826;21;20519;-70
2024/04/23 08:06:31;;;;;;;5.73;3.57;;;15.80;72.10;;;;;;6525536;22;20511;-69
2024/04/23 08:09:00;;;;;;;6.20;2.43;;;16.60;65.40;;;;;;6526321;22;20457;-70
2024/04/23 08:11:26;;;;;;;3.40;2.90;;;17.70;59.70;;;;;;6525821;22;20453;-69
2024/04/23 08:13:54;;;;;;;5.40;3.70;;;18.80;54.30;;;;;;6525887;21;20485;-68
2024/04/23 08:16:23;;;;;;;4.80;3.10;;;19.50;50.80;;;;;;6525016;22;20492;-68
2024/04/23 08:18:51;;;;;;;11.50;3.40;;;20.00;48.70;;;;;;6526170;22;20449;-68
2024/04/23 08:21:18;;;;;;;11.83;4.43;;;20.30;47.10;;;;;;6526186;22;20457;-69
2024/04/23 08:23:47;;;;;;;10.93;3.27;;;20.40;45.30;;;;;;6525646;21;20525;-69
2024/04/23 08:26:15;;;;;;;4.40;3.60;;;20.50;44.80;;;;;;6525287;22;20456;-68
2024/04/23 08:28:46;;;;;;;10.40;3.57;;;20.40;44.00;;;;;;6525850;22;20465;-70
2024/04/23 08:31:12;;;;;;;4.23;3.07;;;20.30;45.40;;;;;;6525883;22;20460;-69
2024/04/23 08:33:43;;;;;;;4.77;3.47;;;20.30;44.10;;;;;;6526174;21;20457;-68
2024/04/23 08:36:09;;;;;;;3.73;2.83;;;20.20;43.50;;;;;;6525135;22;20458;-68
2024/04/23 08:38:38;;;;;;;6.40;3.83;;;19.50;45.00;;;;;;6525789;22;20626;-69
2024/04/23 08:41:05;;;;;;;7.63;3.40;;;19.40;46.00;;;;;;6526163;22;20501;-68
2024/04/23 08:43:35;;;;;;;3.93;3.00;;;19.50;46.70;;;;;;6525511;21;20513;-69
2024/04/23 08:46:02;;;;;;;3.30;2.50;;;19.60;44.70;;;;;;6525004;22;20457;-68
2024/04/23 08:48:31;;;;;;;3.63;3.20;;;19.70;44.70;;;;;;6525459;22;20472;-68
2024/04/23 08:51:01;;;;;;;11.67;4.13;;;19.80;43.50;;;;;;6525916;22;20458;-69
2024/04/23 08:53:30;;;;;;;7.13;3.80;;;20.10;44.80;;;;;;6526126;21;20506;-68
2024/04/23 08:56:02;;;;;;;5.33;3.70;;;20.20;44.30;;;;;;6524565;22;20562;-69
2024/04/23 08:58:31;;;;;;;7.97;3.60;;;19.90;42.40;;;;;;6525720;22;20521;-69
2024/04/23 09:00:59;;;;;;;3.60;2.90;;;20.00;42.30;;;;;;6525455;22;20728;-68
2024/04/23 09:03:32;;;;;;;3.90;2.80;;;20.00;41.80;;;;;;6525805;21;20460;-69
2024/04/23 09:06:03;;;;;;;5.90;3.63;;;19.90;41.90;;;;;;6524856;22;20464;-69
2024/04/23 09:08:32;;;;;;;4.30;2.43;;;19.60;42.00;;;;;;6525398;22;20538;-67
2024/04/23 09:11:00;;;;;;;4.70;2.90;;;19.50;41.00;;;;;;6525522;22;20500;-69
2024/04/23 09:13:29;;;;;;;3.00;2.70;;;19.30;41.80;;;;;;6525059;21;20765;-67
2024/04/23 09:15:57;;;;;;;3.40;2.60;;;19.30;42.40;;;;;;6524452;22;20453;-68
2024/04/23 09:18:26;;;;;;;4.57;2.97;;;19.30;41.70;;;;;;6525504;22;20531;-69
2024/04/23 09:20:55;;;;;;;7.33;2.97;;;19.30;42.60;;;;;;6525599;22;20945;-69
2024/04/23 09:23:28;;;;;;;4.67;2.97;;;19.70;44.80;;;;;;6525518;21;20528;-68
2024/04/23 09:26:01;;;;;;;3.97;3.10;;;20.10;41.40;;;;;;6525410;22;20497;-68
2024/04/23 09:28:31;;;;;;;3.60;3.03;;;20.20;40.70;;;;;;6527848;22;20462;-69
2024/04/23 09:30:59;;;;;;;3.23;2.60;;;20.40;43.00;;;;;;6527767;22;20516;-69
2024/04/23 09:33:28;;;;;;;4.07;3.17;;;20.30;41.00;;;;;;6528088;21;20448;-67
2024/04/23 09:36:05;;;;;;;3.00;2.33;;;20.40;39.40;;;;;;6526960;22;20571;-68
2024/04/23 09:38:38;;;;;;;22.83;4.07;;;20.10;39.70;;;;;;6527665;22;20456;-68
2024/04/23 09:41:07;;;;;;;32.97;7.93;;;19.90;40.30;;;;;;6527909;22;20460;-69
2024/04/23 09:43:34;;;;;;;10.73;4.40;;;19.70;39.80;;;;;;6528536;21;20988;-68
2024/04/23 09:46:05;;;;;;;5.87;2.93;;;19.60;41.70;;;;;;6528074;22;20575;-68
2024/04/23 09:48:31;;;;;;;5.90;2.73;;;19.70;40.20;;;;;;6528323;22;20460;-69
2024/04/23 09:51:04;;;;;;;2.87;2.40;;;19.80;41.80;;;;;;6527410;22;20461;-68
2024/04/23 09:53:30;;;;;;;4.20;2.50;;;19.50;39.40;;;;;;6527837;21;20453;-68
2024/04/23 09:56:06;;;;;;;3.33;2.93;;;18.80;41.10;;;;;;6526490;22;21025;-69
2024/04/23 09:58:32;;;;;;;4.40;2.40;;;18.40;40.80;;;;;;6527601;22;20448;-67
2024/04/23 10:01:02;;;;;;;4.40;2.73;;;18.40;40.20;;;;;;6527668;22;20541;-68
2024/04/23 10:03:33;;;;;;;5.53;2.70;;;18.70;40.80;;;;;;6527322;21;20456;-68
2024/04/23 10:06:06;;;;;;;4.67;2.37;;;18.70;40.00;;;;;;6526515;22;20523;-69
2024/04/23 10:08:39;;;;;;;2.53;2.17;;;18.80;39.70;;;;;;6527543;22;20453;-70
2024/04/23 10:11:13;;;;;;;4.50;2.07;;;18.90;39.60;;;;;;6527803;22;20946;-69
2024/04/23 10:13:44;;;;;;;2.73;2.47;;;18.60;40.40;;;;;;6526891;21;20710;-68
2024/04/23 10:16:20;;;;;;;4.40;2.70;;;18.60;41.10;;;;;;6526516;22;20519;-68
2024/04/23 10:18:55;;;;;;;2.57;2.30;;;18.60;41.50;;;;;;6527368;22;20475;-68
2024/04/23 10:21:30;;;;;;;2.57;2.30;;;18.70;42.70;;;;;;6527330;22;20464;-68
2024/04/23 10:23:59;;;;;;;2.57;2.33;;;18.90;42.40;;;;;;6526433;21;20508;-67
2024/04/23 10:26:31;;;;;;;4.17;2.43;;;19.00;40.40;;;;;;6526882;22;20946;-67
2024/04/23 10:28:57;;;;;;;2.67;2.40;;;18.90;40.00;;;;;;6527791;22;20503;-68
2024/04/23 10:31:27;;;;;;;3.90;2.43;;;18.70;40.30;;;;;;6526964;22;21082;-68
2024/04/23 10:33:55;;;;;;;2.97;2.47;;;18.30;40.30;;;;;;6526861;21;20793;-69
2024/04/23 10:36:25;;;;;;;2.40;2.00;;;17.70;40.00;;;;;;6525933;22;20456;-68
2024/04/23 10:38:53;;;;;;;2.77;2.30;;;17.20;40.60;;;;;;6526786;22;20508;-69
2024/04/23 10:41:24;;;;;;;3.93;2.10;;;17.00;40.90;;;;;;6527215;22;20930;-68
2024/04/23 10:43:54;;;;;;;3.93;2.07;;;16.60;41.00;;;;;;6526440;21;20524;-69
2024/04/23 10:46:23;;;;;;;4.33;2.60;;;15.70;41.40;;;;;;6526984;22;20609;-69
2024/04/23 10:48:53;;;;;;;2.70;2.50;;;14.90;41.70;;;;;;6526905;22;20504;-69
2024/04/23 10:51:23;;;;;;;2.93;2.30;;;14.30;43.00;;;;;;6527299;22;20755;-69
2024/04/23 10:53:51;;;;;;;4.23;2.00;;;13.90;42.70;;;;;;6527022;21;20469;-68
2024/04/23 10:56:30;;;;;;;2.77;1.60;;;13.70;43.20;;;;;;6525919;22;20457;-68
2024/04/23 10:59:11;;;;;;;2.87;2.40;;;14.00;44.00;;;;;;6526992;22;20876;-68
2024/04/23 11:01:49;;;;;;;2.57;2.20;;;14.10;44.00;;;;;;6526999;22;20512;-68
2024/04/23 11:04:15;;;;;;;3.60;2.10;;;14.30;44.70;;;;;;6526854;21;20785;-68
2024/04/23 11:06:44;;;;;;;4.10;2.10;;;14.40;42.70;;;;;;6525978;22;20512;-69
2024/04/23 11:09:17;;;;;;;3.83;2.00;;;14.50;42.40;;;;;;6526882;22;20511;-68
2024/04/23 11:11:52;;;;;;;3.23;2.20;;;14.80;42.60;;;;;;6526783;22;20840;-68
2024/04/23 11:14:34;;;;;;;2.90;2.03;;;14.90;41.60;;;;;;6525898;21;20468;-68
2024/04/23 11:17:03;;;;;;;6.17;2.17;;;14.60;41.50;;;;;;6526356;22;20905;-68
2024/04/23 11:19:37;;;;;;;3.40;2.57;;;14.00;42.50;;;;;;6527298;22;20499;-69
2024/04/23 11:22:09;;;;;;;3.80;2.50;;;13.90;43.10;;;;;;6526550;22;20507;-68
2024/04/23 11:24:42;;;;;;;3.00;2.33;;;13.80;44.90;;;;;;6525703;21;20778;-68
2024/04/23 11:27:12;;;;;;;3.53;2.90;;;13.40;44.00;;;;;;6526574;22;20456;-68
2024/04/23 11:29:42;;;;;;;2.23;1.90;;;12.90;43.80;;;;;;6526816;22;20495;-69
2024/04/23 11:32:11;;;;;;;2.50;2.23;;;12.90;44.90;;;;;;6526662;22;20457;-69
2024/04/23 11:34:38;;;;;;;3.17;2.43;;;13.20;45.10;;;;;;6525355;21;21037;-68
2024/04/23 11:37:07;;;;;;;2.53;2.30;;;13.20;45.10;;;;;;6526497;22;20534;-68
2024/04/23 11:39:33;;;;;;;3.90;2.70;;;13.20;45.90;;;;;;6526490;22;20449;-68
2024/04/23 11:42:02;;;;;;;1.90;1.77;;;13.10;45.80;;;;;;6527037;22;20468;-68
2024/04/23 11:44:29;;;;;;;3.00;2.40;;;12.80;44.90;;;;;;6525781;21;20568;-68
2024/04/23 11:47:01;;;;;;;4.37;1.80;;;12.60;45.60;;;;;;6526423;22;20643;-68
2024/04/23 11:49:27;;;;;;;5.03;2.27;;;12.60;45.30;;;;;;6526247;22;20671;-68
2024/04/23 11:51:57;;;;;;;2.40;1.60;;;12.60;44.80;;;;;;6526452;22;20464;-68
2024/04/23 11:54:24;;;;;;;3.30;2.60;;;12.40;44.90;;;;;;6525842;21;20472;-68
2024/04/23 11:56:53;;;;;;;2.43;2.23;;;12.20;46.20;;;;;;6526516;22;20449;-68
2024/04/23 11:59:22;;;;;;;4.20;2.10;;;12.10;46.20;;;;;;6526195;22;20489;-68
2024/04/23 12:01:51;;;;;;;4.13;2.43;;;12.10;46.80;;;;;;6526863;22;20989;-68
2024/04/23 12:04:21;;;;;;;3.67;3.27;;;12.10;47.20;;;;;;6525858;21;20464;-67
2024/04/23 12:06:52;;;;;;;3.50;2.50;;;12.30;46.70;;;;;;6526553;22;20519;-68
2024/04/23 12:09:18;;;;;;;3.50;2.00;;;12.30;46.80;;;;;;6526722;22;20828;-69
2024/04/23 12:11:48;;;;;;;3.83;1.83;;;12.10;45.30;;;;;;6525947;22;20772;-68
2024/04/23 12:14:14;;;;;;;3.20;2.50;;;11.90;45.50;;;;;;6525977;21;20513;-68
2024/04/23 12:16:46;;;;;;;3.17;2.70;;;11.80;46.10;;;;;;6525174;22;20456;-67
2024/04/23 12:19:12;;;;;;;5.47;2.33;;;11.70;46.50;;;;;;6526250;22;20501;-68
2024/04/23 12:21:44;;;;;;;4.80;2.40;;;11.70;47.50;;;;;;6526365;22;20545;-68
2024/04/23 12:24:14;;;;;;;5.93;2.60;;;11.60;47.10;;;;;;6526076;21;20574;-69
2024/04/23 12:26:43;;;;;;;2.60;2.37;;;11.50;48.10;;;;;;6525715;22;20842;-68
2024/04/23 12:29:10;;;;;;;2.60;1.87;;;11.50;47.90;;;;;;6525896;22;20815;-68
2024/04/23 12:31:39;;;;;;;2.10;1.90;;;11.40;48.10;;;;;;6526209;22;20517;-68
2024/04/23 12:34:05;;;;;;;3.30;2.27;;;11.50;49.10;;;;;;6525713;21;20477;-69
2024/04/23 12:36:34;;;;;;;4.97;2.30;;;11.60;47.80;;;;;;6524958;22;20456;-68
2024/04/23 12:39:11;;;;;;;3.43;2.30;;;11.60;48.00;;;;;;6525786;22;20576;-68
2024/04/23 12:41:42;;;;;;;5.23;3.20;;;11.70;47.40;;;;;;6525684;22;20468;-68
2024/04/23 12:44:16;;;;;;;2.60;2.17;;;11.90;46.90;;;;;;6525911;21;20464;-67
2024/04/23 12:46:45;;;;;;;2.60;1.90;;;12.10;46.60;;;;;;6525255;22;20452;-69
2024/04/23 12:49:12;;;;;;;4.53;2.10;;;12.10;47.00;;;;;;6526523;22;20572;-70
2024/04/23 12:51:40;;;;;;;3.30;2.50;;;12.20;46.80;;;;;;6526805;22;20452;-69
2024/04/23 12:54:08;;;;;;;7.20;2.50;;;12.20;47.70;;;;;;6526466;21;20468;-68
2024/04/23 12:56:40;;;;;;;5.80;2.40;;;12.30;47.90;;;;;;6526296;22;20505;-67
2024/04/23 12:59:09;;;;;;;4.53;2.20;;;12.20;46.90;;;;;;6527248;22;20461;-67
2024/04/23 13:01:38;;;;;;;3.17;2.90;;;12.10;47.00;;;;;;6527380;22;20509;-68
2024/04/23 13:04:04;;;;;;;3.60;2.47;;;12.20;48.20;;;;;;6527310;21;20520;-67
2024/04/23 13:06:33;;;;;;;3.27;2.10;;;12.20;47.80;;;;;;6526804;22;20457;-70
2024/04/23 13:09:00;;;;;;;3.70;2.10;;;12.40;48.00;;;;;;6527360;22;20501;-68
2024/04/23 13:11:29;;;;;;;3.00;2.27;;;12.60;48.50;;;;;;6527741;22;20508;-68